Hundvaag 1 weather for Nov 2005
Month no. 221
Obs.
Da.
Temp. Dew Point Precip. Wind
Speed
Wind gusts Cloud cover Press. Humidity Wind dir. Sunny OPT
01.11.2005 12,7   12,5 17,7   1 1004,6 93,0 202,5   50,0 %
02.11.2005 10,6   3,6 8,0   1 1003,9 85,0 180,0   60,0 %
03.11.2005 13,3   9,0 11,3   0 993,5 84,0 157,5   52,5 %
04.11.2005 13,4   16,5 20,9   0 994,5 86,0 180,0   42,5 %
05.11.2005 11,4   5,0 5,0   1 1011,0 88,0 135,0   62,5 %
06.11.2005 11,6   4,8 11,0   7 1010,0 89,0 180,0 1 72,5 %
07.11.2005 10,6   10,4 10,0   10 1014,0 81,0 202,5 1 77,5 %
08.11.2005 11,9   3,1 24,0   0 1011,0 85,0 202,5   47,5 %
09.11.2005 13,7   13,0 10,0   0 1020,0 85,0 180,0   52,5 %
10.11.2005 8,8   14,0 14,0   0 1016,0 82,0 202,5   45,0 %
11.11.2005 8,3   16,9 16,0   1 1013,4 81,0 180,0   42,5 %
12.11.2005 9,6   2,6 19,0   0 1010,0 79,0 202,5   50,0 %
13.11.2005 8,8   6,5 11,0   5 1018,3 75,0 315,0 1 62,5 %
14.11.2005 10,7   1,7 4,8   0 1005,3 87,0 225,0   62,5 %
15.11.2005 7,5   26,5 17,7   3 993,5 88,0 0,0   40,0 %
16.11.2005 2,0   5,0 3,3   10 999,5 84,0 315,0 1 77,5 %
17.11.2005 2,0   0,0 2,0   10 1009,5 82,0 0,0 1 80,0 %
18.11.2005 0,7   0,0 1,0   10 1021,0 86,0 337,5   80,0 %
19.11.2005 1,0   0,1 0,8   4 1026,0 87,0     65,0 %
20.11.2005 6,4   1,4 3,2   3 1025,0 92,0 45,0   67,5 %
21.11.2005 4,8   6,7 3,1   0 1031,5 89,0 202,5   52,5 %
22.11.2005 6,8   0,3 0,0   0 1036,5 94,0 202,5   60,0 %
23.11.2005 4,6   0,2 1,4   1 1029,0 94,0     60,0 %
24.11.2005 9,0   15,5 2,4   0 1004,5 89,0 247,5   50,0 %
25.11.2005 4,4   1,5 2,1   1 992,0 71,0 22,5   60,0 %
26.11.2005 4,8   0,3 0,7   8 998,5 69,0 22,5 1 77,5 %
27.11.2005 0,5   0,0 0,2   9 998,5 85,0 22,5 1 77,5 %
28.11.2005 3,1   0,2 0,2   3 997,0 76,0 157,5   65,0 %
29.11.2005 1,2   1,5 1,4   4 999,5 91,0     65,0 %
30.11.2005 0,8   6,0 0,9   4 1002,5 87,0 315,0   60,0 %
                       
Avrg/Sum 7,2   184,8 7,4   3,2 1009,7 84,8 171,7 7 60,6 %